Asia, Texas
Current Conditions -  °F | °C
As of 2:53 PM on Tuesday 21 Oct 2014 (Local Time) from KLFK Reporting Station
Clear Clear  
Wind Chill: 82°   Ceiling: Unl
Heat Index: 82°   Visibility: 10mi
Dew Point: 59°   Wind: 12mph
Humidity: 45%   Direction: 70°ENE
Pressure: 30.03"   Gusts: NA
Location:  31.024°N, 94.7686°W
Report Text: KLFK 211953Z AUTO 07010KT 10SM CLR 28/15 A3003 RMK AO2 SLP166 T02780150
Loading
Personal Weather Stations






























Interactive Weather Map
Tropical Storm Tracking
New forecast layout! Learn more

10-Day Weather Forecast

Advertisements
Track Severe Weather on mobile